Time;durP1;ratioP1;P1;durP2;ratioP2;P2;SDS_P1;SDS_P2;PMS_P1;PMS_P2;Temp;Humidity;BMP_temperature;BMP_pressure;BME280_temperature;BME280_humidity;BME280_pressure;Samples;Min_cycle;Max_cycle;Signal;HPM_P1;HPM_P2
2022/03/17 00:00:08;;;;;;;32.72;24.17;;;9.70;62.60;;;;;;5069068;28;20033;-63
2022/03/17 00:02:35;;;;;;;38.45;25.55;;;9.70;62.60;;;;;;5067532;28;20397;-64
2022/03/17 00:05:00;;;;;;;34.60;25.88;;;9.70;62.60;;;;;;5066684;28;20025;-63
2022/03/17 00:07:26;;;;;;;32.60;24.70;;;9.60;62.50;;;;;;5069214;28;20038;-63
2022/03/17 00:09:52;;;;;;;36.28;25.17;;;9.60;62.50;;;;;;5067771;28;20059;-63
2022/03/17 00:12:18;;;;;;;34.65;24.65;;;9.60;62.50;;;;;;5067365;28;20033;-63
2022/03/17 00:14:44;;;;;;;32.10;24.27;;;9.60;62.50;;;;;;5071178;28;20075;-63
2022/03/17 00:17:09;;;;;;;34.65;24.45;;;9.60;62.60;;;;;;5075111;28;20025;-63
2022/03/17 00:19:36;;;;;;;39.40;26.75;;;9.60;62.50;;;;;;5066701;28;20025;-63
2022/03/17 00:22:06;;;;;;;35.38;25.20;;;9.50;62.40;;;;;;5067675;28;20025;-64
2022/03/17 00:24:32;;;;;;;37.13;25.20;;;9.50;62.40;;;;;;5075326;28;20037;-63
2022/03/17 00:26:59;;;;;;;33.65;24.73;;;9.50;62.40;;;;;;5067946;28;20389;-64
2022/03/17 00:29:25;;;;;;;36.65;25.60;;;9.50;62.50;;;;;;5078213;28;20442;-64
2022/03/17 00:31:50;;;;;;;37.92;27.13;;;9.50;62.50;;;;;;5066341;28;20108;-64
2022/03/17 00:34:16;;;;;;;34.47;24.90;;;9.50;62.40;;;;;;5047048;28;20047;-64
2022/03/17 00:36:41;;;;;;;31.70;24.15;;;9.50;62.40;;;;;;5069721;28;20033;-64
2022/03/17 00:39:08;;;;;;;34.38;23.50;;;9.50;62.40;;;;;;5065137;28;20037;-64
2022/03/17 00:41:34;;;;;;;33.45;23.08;;;9.40;62.30;;;;;;5067911;28;20031;-64
2022/03/17 00:44:00;;;;;;;34.88;25.13;;;9.40;62.30;;;;;;5065323;28;20053;-64
2022/03/17 00:46:25;;;;;;;35.97;25.35;;;9.40;62.40;;;;;;5048830;28;20025;-65
2022/03/17 00:48:51;;;;;;;36.20;25.50;;;9.40;62.40;;;;;;5065680;28;20040;-64
2022/03/17 00:51:17;;;;;;;35.40;24.75;;;9.40;62.30;;;;;;5066015;28;20045;-63
2022/03/17 00:53:43;;;;;;;35.00;24.73;;;9.40;62.20;;;;;;5066403;28;20092;-64
2022/03/17 00:56:09;;;;;;;31.77;23.85;;;9.40;62.20;;;;;;5065186;28;20508;-64
2022/03/17 00:58:34;;;;;;;33.92;24.98;;;9.40;62.30;;;;;;5066291;28;20033;-64
2022/03/17 01:01:00;;;;;;;35.28;24.88;;;9.30;62.20;;;;;;5064736;28;20020;-63
2022/03/17 01:03:26;;;;;;;34.63;24.25;;;9.30;62.20;;;;;;5065743;28;20021;-64
2022/03/17 01:05:53;;;;;;;34.58;25.05;;;9.30;62.20;;;;;;5065512;28;20079;-64
2022/03/17 01:08:19;;;;;;;32.55;23.48;;;9.30;62.20;;;;;;5065219;28;20855;-64
2022/03/17 01:10:45;;;;;;;37.35;24.33;;;9.30;62.20;;;;;;5068369;28;20046;-64
2022/03/17 01:13:10;;;;;;;47.58;23.77;;;9.30;62.20;;;;;;5048803;28;20047;-64
2022/03/17 01:15:36;;;;;;;35.40;24.63;;;9.30;62.20;;;;;;5047440;28;20409;-63
2022/03/17 01:18:02;;;;;;;36.17;23.50;;;9.30;62.20;;;;;;5048780;28;20037;-64
2022/03/17 01:20:29;;;;;;;32.42;22.45;;;9.30;62.20;;;;;;5064708;28;20044;-64
2022/03/17 01:22:55;;;;;;;35.10;23.63;;;9.30;62.20;;;;;;5065492;28;20021;-64
2022/03/17 01:25:21;;;;;;;32.53;23.20;;;9.30;62.20;;;;;;5064302;28;20051;-64
2022/03/17 01:27:47;;;;;;;33.88;23.38;;;9.30;62.20;;;;;;5047911;28;20049;-64
2022/03/17 01:30:13;;;;;;;33.80;23.33;;;9.20;62.10;;;;;;5067132;28;20116;-64
2022/03/17 01:32:39;;;;;;;32.85;22.73;;;9.20;62.10;;;;;;5070143;28;20037;-64
2022/03/17 01:35:07;;;;;;;32.33;23.20;;;9.20;62.10;;;;;;5066757;28;20029;-64
2022/03/17 01:37:33;;;;;;;32.25;23.83;;;9.20;62.10;;;;;;5065722;28;20029;-63
2022/03/17 01:39:59;;;;;;;32.00;22.23;;;9.20;62.10;;;;;;5063561;28;20041;-63
2022/03/17 01:42:25;;;;;;;32.92;23.50;;;9.20;62.10;;;;;;5035368;28;20060;-63
2022/03/17 01:44:50;;;;;;;33.95;23.33;;;9.10;62.00;;;;;;5063936;28;20029;-64
2022/03/17 01:47:28;;;;;;;34.28;22.40;;;9.10;62.00;;;;;;5047247;28;20055;-65
2022/03/17 01:50:08;;;;;;;36.20;22.80;;;9.10;62.00;;;;;;5060502;28;20029;-65
2022/03/17 01:52:34;;;;;;;32.25;21.75;;;9.10;62.00;;;;;;5056529;28;20064;-65
2022/03/17 01:55:01;;;;;;;29.50;22.13;;;9.10;62.00;;;;;;5044815;28;20040;-63
2022/03/17 01:57:27;;;;;;;35.05;24.00;;;9.10;62.10;;;;;;5049500;28;20036;-63
2022/03/17 01:59:53;;;;;;;36.35;23.13;;;9.00;62.00;;;;;;5042688;28;20021;-65
2022/03/17 02:02:19;;;;;;;31.88;22.00;;;9.00;62.00;;;;;;5038753;28;20088;-64
2022/03/17 02:04:47;;;;;;;32.88;22.75;;;9.00;62.10;;;;;;5026663;28;20022;-63
2022/03/17 02:07:14;;;;;;;32.72;22.77;;;9.00;62.10;;;;;;5052454;28;20048;-66
2022/03/17 02:09:41;;;;;;;32.25;23.15;;;9.00;62.10;;;;;;5045450;28;20026;-63
2022/03/17 02:14:59;;;;;;;28.75;20.45;;;9.00;62.10;;;;;;5052507;28;20043;-63
2022/03/17 02:17:27;;;;;;;30.15;21.83;;;9.00;62.10;;;;;;5044706;28;20492;-63
2022/03/17 02:19:53;;;;;;;29.65;21.67;;;9.00;62.10;;;;;;5044085;28;20060;-63
2022/03/17 02:22:21;;;;;;;32.80;22.67;;;8.90;62.10;;;;;;5033305;28;20029;-63
2022/03/17 02:27:48;;;;;;;30.02;20.40;;;8.90;62.10;;;;;;5044518;28;20040;-65
2022/03/17 02:30:16;;;;;;;30.90;22.33;;;8.90;62.10;;;;;;5052076;28;20021;-64
2022/03/17 02:32:42;;;;;;;30.25;21.48;;;8.90;62.10;;;;;;5040307;28;20555;-64
2022/03/17 02:35:11;;;;;;;32.38;22.90;;;8.90;62.10;;;;;;5063590;28;20080;-64
2022/03/17 02:37:37;;;;;;;44.83;23.13;;;8.90;62.10;;;;;;5044335;28;20056;-64
2022/03/17 02:40:07;;;;;;;30.10;21.85;;;8.90;62.00;;;;;;5043677;28;20029;-64
2022/03/17 02:42:33;;;;;;;31.98;22.67;;;8.90;62.00;;;;;;5046092;28;20104;-64
2022/03/17 02:45:01;;;;;;;33.33;23.02;;;8.90;62.10;;;;;;5026036;28;20045;-64
2022/03/17 02:47:27;;;;;;;31.33;22.10;;;8.90;62.20;;;;;;5043759;28;20037;-64
2022/03/17 02:49:55;;;;;;;30.85;22.73;;;8.90;62.20;;;;;;5023587;28;20064;-63
2022/03/17 02:52:22;;;;;;;27.58;20.48;;;8.90;62.20;;;;;;5053128;28;20042;-64
2022/03/17 02:54:48;;;;;;;33.80;22.40;;;8.90;62.20;;;;;;5044522;28;20049;-64
2022/03/17 02:57:14;;;;;;;32.28;22.13;;;8.90;62.20;;;;;;5036048;28;20484;-64
2022/03/17 02:59:40;;;;;;;31.80;22.10;;;8.90;62.30;;;;;;5055789;28;20032;-64
2022/03/17 03:02:05;;;;;;;31.45;22.60;;;8.90;62.20;;;;;;5047541;28;20073;-64
2022/03/17 03:04:35;;;;;;;30.50;22.20;;;8.90;62.20;;;;;;5039731;28;20052;-64
2022/03/17 03:07:06;;;;;;;39.78;23.42;;;8.90;62.20;;;;;;5049000;28;20052;-64
2022/03/17 03:09:33;;;;;;;36.08;23.17;;;8.90;62.20;;;;;;5042270;28;20105;-64
2022/03/17 03:11:59;;;;;;;32.05;22.80;;;8.90;62.20;;;;;;5048732;28;20041;-64
2022/03/17 03:14:25;;;;;;;35.33;22.70;;;8.90;62.30;;;;;;5047825;28;20029;-64
2022/03/17 03:16:51;;;;;;;31.65;22.92;;;8.90;62.30;;;;;;5056818;28;20029;-64
2022/03/17 03:19:17;;;;;;;33.58;23.23;;;8.90;62.30;;;;;;5053437;28;20052;-64
2022/03/17 03:21:46;;;;;;;32.65;22.88;;;8.90;62.40;;;;;;5062703;28;20033;-64
2022/03/17 03:24:13;;;;;;;32.30;23.70;;;8.90;62.30;;;;;;5045718;28;20764;-64
2022/03/17 03:26:43;;;;;;;30.15;21.63;;;8.90;62.30;;;;;;5048310;28;20041;-64
2022/03/17 03:29:31;;;;;;;32.08;22.77;;;8.90;62.30;;;;;;5046683;28;20025;-64
2022/03/17 03:31:58;;;;;;;35.80;24.33;;;8.90;62.40;;;;;;5049292;28;20163;-64
2022/03/17 03:34:25;;;;;;;32.20;22.88;;;8.90;62.30;;;;;;5046943;28;20065;-64
2022/03/17 03:39:36;;;;;;;;;;;8.80;62.30;;;;;;5046764;28;20041;-64
2022/03/17 03:42:03;;;;;;;31.70;21.45;;;8.90;62.50;;;;;;4910421;28;19913;-65
2022/03/17 03:44:28;;;;;;;36.88;24.27;;;8.90;62.30;;;;;;5046710;28;20041;-64
2022/03/17 03:46:54;;;;;;;32.92;23.73;;;8.90;62.40;;;;;;5048115;28;20112;-63
2022/03/17 03:49:21;;;;;;;34.45;23.88;;;8.80;62.40;;;;;;5046180;28;20056;-64
2022/03/17 03:51:47;;;;;;;32.80;23.58;;;8.80;62.50;;;;;;5047445;28;20041;-63
2022/03/17 03:54:13;;;;;;;35.45;25.35;;;8.80;62.60;;;;;;5046219;28;20456;-63
2022/03/17 03:56:40;;;;;;;36.45;24.60;;;8.80;62.60;;;;;;5051526;28;20083;-63
2022/03/17 03:59:12;;;;;;;37.03;26.25;;;8.80;62.60;;;;;;5045064;28;20021;-63
2022/03/17 04:01:38;;;;;;;33.97;24.42;;;8.90;62.70;;;;;;5053219;28;20025;-65
2022/03/17 04:04:03;;;;;;;34.28;23.77;;;8.80;62.50;;;;;;5046461;28;20045;-65
2022/03/17 04:06:31;;;;;;;37.45;24.83;;;8.80;62.60;;;;;;5046905;28;20022;-63
2022/03/17 04:08:56;;;;;;;36.17;25.15;;;8.80;62.70;;;;;;5045721;28;20025;-63
2022/03/17 04:11:22;;;;;;;32.78;24.48;;;8.80;62.70;;;;;;5047125;28;20091;-63
2022/03/17 04:13:48;;;;;;;31.88;23.52;;;8.80;62.70;;;;;;5050495;28;20144;-63
2022/03/17 04:16:13;;;;;;;35.67;25.05;;;8.90;62.80;;;;;;5046860;28;20041;-65
2022/03/17 04:18:39;;;;;;;34.65;25.63;;;8.90;62.70;;;;;;5049941;28;20059;-64
2022/03/17 04:21:05;;;;;;;33.15;23.10;;;8.90;62.70;;;;;;5048093;28;20049;-63
2022/03/17 04:23:30;;;;;;;35.75;24.15;;;8.90;62.80;;;;;;5045507;28;20026;-63
2022/03/17 04:25:56;;;;;;;33.97;24.77;;;8.90;62.80;;;;;;5047052;28;20053;-63
2022/03/17 04:28:21;;;;;;;35.58;24.77;;;8.90;62.90;;;;;;5045190;28;20041;-65
2022/03/17 04:30:47;;;;;;;32.08;22.50;;;8.90;62.80;;;;;;5033937;28;20097;-63
2022/03/17 04:33:13;;;;;;;33.63;23.90;;;8.90;62.80;;;;;;5046962;28;20064;-63
2022/03/17 04:35:38;;;;;;;31.05;23.00;;;8.90;62.70;;;;;;5046006;28;20077;-65
2022/03/17 04:38:04;;;;;;;33.40;24.45;;;8.90;62.70;;;;;;5043918;28;20469;-63
2022/03/17 04:40:30;;;;;;;34.72;24.00;;;8.90;62.60;;;;;;5045570;28;20057;-63
2022/03/17 04:42:56;;;;;;;32.65;23.17;;;8.90;62.60;;;;;;5046742;28;20053;-65
2022/03/17 04:45:21;;;;;;;39.63;24.65;;;8.90;62.50;;;;;;5045827;28;20037;-65
2022/03/17 04:47:47;;;;;;;34.95;24.52;;;8.90;62.60;;;;;;5046684;28;20112;-65
2022/03/17 04:50:13;;;;;;;34.28;24.60;;;9.00;62.60;;;;;;5044772;28;20120;-65
2022/03/17 04:55:23;;;;;;;25.52;17.67;;;9.00;62.60;;;;;;5045937;28;20115;-63
2022/03/17 04:57:48;;;;;;;33.67;23.42;;;9.00;62.50;;;;;;5046389;28;20033;-63
2022/03/17 05:00:14;;;;;;;35.75;24.10;;;9.00;62.50;;;;;;5045415;28;20127;-64
2022/03/17 05:02:40;;;;;;;39.83;27.30;;;9.00;62.50;;;;;;5029432;28;20025;-65
2022/03/17 05:05:06;;;;;;;34.83;24.73;;;9.00;62.50;;;;;;5027459;28;20088;-64
2022/03/17 05:07:32;;;;;;;34.13;23.88;;;9.00;62.40;;;;;;5031637;28;20035;-65
2022/03/17 05:09:57;;;;;;;36.65;24.60;;;9.00;62.40;;;;;;5044866;28;20033;-63
2022/03/17 05:12:23;;;;;;;32.25;23.92;;;9.00;62.50;;;;;;5027776;28;20117;-64
2022/03/17 05:14:49;;;;;;;34.20;24.67;;;9.00;62.40;;;;;;5046621;28;20029;-65
2022/03/17 05:17:14;;;;;;;36.17;24.83;;;9.00;62.40;;;;;;5046394;28;20021;-65
2022/03/17 05:19:40;;;;;;;36.05;23.48;;;9.00;62.40;;;;;;5027048;28;20029;-63
2022/03/17 05:22:05;;;;;;;35.05;24.88;;;9.00;62.30;;;;;;5045817;28;20026;-63
2022/03/17 05:24:32;;;;;;;36.95;25.25;;;9.00;62.30;;;;;;5045075;28;20052;-63
2022/03/17 05:26:58;;;;;;;34.17;24.48;;;9.00;62.40;;;;;;5028018;28;20044;-63
2022/03/17 05:29:24;;;;;;;33.65;24.80;;;9.00;62.30;;;;;;5043849;28;20052;-63
2022/03/17 05:31:49;;;;;;;33.95;24.60;;;9.00;62.30;;;;;;5048502;28;20045;-64
2022/03/17 05:34:15;;;;;;;31.67;23.10;;;8.90;62.30;;;;;;5043317;28;20053;-64
2022/03/17 05:36:41;;;;;;;30.70;22.55;;;9.00;62.30;;;;;;5045391;28;20060;-64
2022/03/17 05:39:07;;;;;;;32.92;23.02;;;9.00;62.30;;;;;;5042571;28;20056;-65
2022/03/17 05:41:32;;;;;;;35.03;25.15;;;9.00;62.30;;;;;;5044643;28;20078;-63
2022/03/17 05:43:58;;;;;;;37.20;25.73;;;9.00;62.20;;;;;;5044015;28;20033;-65
2022/03/17 05:46:25;;;;;;;32.65;23.05;;;9.00;62.30;;;;;;5035053;28;20032;-64
2022/03/17 05:48:52;;;;;;;33.42;22.67;;;9.00;62.30;;;;;;5043425;28;20032;-65
2022/03/17 05:51:17;;;;;;;37.35;25.02;;;9.10;62.40;;;;;;5042079;28;20144;-66
2022/03/17 05:53:43;;;;;;;39.42;24.80;;;9.10;62.40;;;;;;5050242;28;20029;-63
2022/03/17 05:56:08;;;;;;;36.08;25.83;;;9.10;62.40;;;;;;5026662;28;20037;-63
2022/03/17 05:58:34;;;;;;;34.72;24.98;;;9.10;62.30;;;;;;5044107;28;20100;-65
2022/03/17 06:01:00;;;;;;;34.70;24.42;;;9.10;62.30;;;;;;5043792;28;20089;-65
2022/03/17 06:03:26;;;;;;;37.17;26.83;;;9.10;62.30;;;;;;5036731;28;20036;-65
2022/03/17 06:05:51;;;;;;;34.63;24.70;;;9.10;62.30;;;;;;5045347;28;20067;-65
2022/03/17 06:08:17;;;;;;;35.53;24.92;;;9.10;62.20;;;;;;5027221;28;20121;-64
2022/03/17 06:10:43;;;;;;;37.95;25.33;;;9.10;62.30;;;;;;5026059;28;20523;-65
2022/03/17 06:13:08;;;;;;;37.30;26.52;;;9.10;62.40;;;;;;5026069;28;20029;-65
2022/03/17 06:15:35;;;;;;;36.50;25.20;;;9.10;62.20;;;;;;5042056;28;20029;-65
2022/03/17 06:18:03;;;;;;;36.90;25.70;;;9.10;62.20;;;;;;5044268;28;20027;-62
2022/03/17 06:20:31;;;;;;;35.85;25.70;;;9.10;62.30;;;;;;5046142;28;20463;-64
2022/03/17 06:22:59;;;;;;;34.80;24.65;;;9.10;62.40;;;;;;5055898;28;20037;-63
2022/03/17 06:25:27;;;;;;;32.72;23.70;;;9.10;62.50;;;;;;5042678;28;20474;-64
2022/03/17 06:27:53;;;;;;;34.05;25.02;;;9.20;63.10;;;;;;5044447;28;20033;-65
2022/03/17 06:30:25;;;;;;;38.85;26.00;;;9.20;62.60;;;;;;5043562;28;20021;-65
2022/03/17 06:32:54;;;;;;;37.88;26.23;;;9.20;62.50;;;;;;5042056;28;20073;-65
2022/03/17 06:35:21;;;;;;;35.88;25.15;;;9.20;62.40;;;;;;5041932;28;20017;-65
2022/03/17 06:37:54;;;;;;;35.60;25.67;;;9.30;62.50;;;;;;5041227;28;20048;-65
2022/03/17 06:40:22;;;;;;;37.28;26.27;;;9.20;62.60;;;;;;5044056;28;20022;-64
2022/03/17 06:42:48;;;;;;;38.95;26.85;;;9.30;62.60;;;;;;5025834;28;20045;-63
2022/03/17 06:45:14;;;;;;;39.70;25.65;;;9.30;62.50;;;;;;5043644;28;20025;-64
2022/03/17 06:47:40;;;;;;;37.25;27.00;;;9.30;62.50;;;;;;5039311;28;20215;-63
2022/03/17 06:50:07;;;;;;;38.78;26.35;;;9.40;62.50;;;;;;5025858;28;20033;-65
2022/03/17 06:52:33;;;;;;;46.00;28.48;;;9.40;62.50;;;;;;5042405;28;20065;-63
2022/03/17 06:54:59;;;;;;;42.13;27.15;;;9.40;62.40;;;;;;5044236;28;20066;-63
2022/03/17 06:57:24;;;;;;;39.17;26.92;;;9.40;62.30;;;;;;5025099;28;20029;-63
2022/03/17 06:59:51;;;;;;;40.33;26.13;;;9.40;62.30;;;;;;5044120;28;20022;-63
2022/03/17 07:02:17;;;;;;;38.78;27.02;;;9.50;62.40;;;;;;5042659;28;20388;-64
2022/03/17 07:04:44;;;;;;;39.40;26.90;;;9.50;62.60;;;;;;5022444;28;20058;-65
2022/03/17 07:07:10;;;;;;;39.58;26.10;;;9.50;62.50;;;;;;5042793;28;20029;-64
2022/03/17 07:09:37;;;;;;;37.53;25.60;;;9.60;62.50;;;;;;5041988;28;20029;-65
2022/03/17 07:12:03;;;;;;;36.13;26.48;;;9.60;62.50;;;;;;5043779;28;20043;-66
2022/03/17 07:14:30;;;;;;;39.67;27.27;;;9.60;62.50;;;;;;5040796;28;20029;-65
2022/03/17 07:16:55;;;;;;;38.03;26.67;;;9.70;62.50;;;;;;5046344;28;20033;-66
2022/03/17 07:19:21;;;;;;;37.15;26.73;;;9.70;62.50;;;;;;5045589;28;20025;-65
2022/03/17 07:21:47;;;;;;;38.00;26.70;;;9.70;62.40;;;;;;5044035;28;20053;-65
2022/03/17 07:24:12;;;;;;;43.67;28.73;;;9.80;62.40;;;;;;5045741;28;20040;-66
2022/03/17 07:26:41;;;;;;;41.67;28.52;;;9.80;62.30;;;;;;5026050;28;20045;-65
2022/03/17 07:29:07;;;;;;;42.08;28.55;;;9.90;62.30;;;;;;5045881;28;20033;-65
2022/03/17 07:31:33;;;;;;;43.53;29.35;;;9.90;62.20;;;;;;5046757;28;20029;-65
2022/03/17 07:33:59;;;;;;;44.40;28.75;;;10.00;62.10;;;;;;5042618;28;20029;-65
2022/03/17 07:36:26;;;;;;;41.75;28.88;;;10.00;62.10;;;;;;5049067;28;20010;-64
2022/03/17 07:38:54;;;;;;;41.17;29.80;;;10.10;62.20;;;;;;5040582;28;20040;-64
2022/03/17 07:41:20;;;;;;;43.72;30.13;;;10.10;62.00;;;;;;5043818;28;20101;-63
2022/03/17 07:43:46;;;;;;;44.72;30.40;;;10.20;61.90;;;;;;5043664;28;20033;-66
2022/03/17 07:46:12;;;;;;;41.00;29.38;;;10.20;61.80;;;;;;5031154;28;20033;-65
2022/03/17 07:48:38;;;;;;;37.38;28.17;;;10.20;61.70;;;;;;5041468;28;20033;-65
2022/03/17 07:51:04;;;;;;;44.38;29.42;;;10.20;61.70;;;;;;5020788;28;20052;-65
2022/03/17 07:53:30;;;;;;;42.60;29.60;;;10.20;61.60;;;;;;5023944;28;20022;-65
2022/03/17 07:55:57;;;;;;;45.03;31.67;;;10.30;61.50;;;;;;5018382;28;20022;-63
2022/03/17 07:58:26;;;;;;;42.30;29.70;;;10.20;61.40;;;;;;5021540;28;20060;-64
2022/03/17 08:00:56;;;;;;;41.80;28.98;;;10.30;61.50;;;;;;5013635;28;20451;-63
2022/03/17 08:03:22;;;;;;;37.22;27.15;;;10.20;61.40;;;;;;5023137;28;20025;-63
2022/03/17 08:05:49;;;;;;;43.25;30.02;;;10.30;61.40;;;;;;5017786;28;20086;-63
2022/03/17 08:08:18;;;;;;;41.35;29.33;;;10.30;61.40;;;;;;5020750;28;20026;-61
2022/03/17 08:10:44;;;;;;;39.88;29.10;;;10.30;61.20;;;;;;5013220;28;20030;-61
2022/03/17 08:13:10;;;;;;;43.50;29.17;;;10.30;61.20;;;;;;5023311;28;20029;-62
2022/03/17 08:15:37;;;;;;;44.65;28.85;;;10.30;61.20;;;;;;5025699;28;20068;-61
2022/03/17 08:18:04;;;;;;;36.67;26.50;;;10.30;61.20;;;;;;5023851;28;20064;-62
2022/03/17 08:20:30;;;;;;;38.42;27.13;;;10.30;61.30;;;;;;5022329;28;20105;-63
2022/03/17 08:22:56;;;;;;;39.10;27.50;;;10.40;61.10;;;;;;5023399;28;20500;-63
2022/03/17 08:25:34;;;;;;;43.55;28.83;;;10.40;60.90;;;;;;5025120;28;20566;-63
2022/03/17 08:30:46;;;;;;;41.75;27.27;;;10.40;60.80;;;;;;5027544;28;20430;-61
2022/03/17 08:33:13;;;;;;;34.63;26.65;;;10.40;60.90;;;;;;5025966;28;20034;-61
2022/03/17 08:35:40;;;;;;;43.00;28.45;;;10.50;60.90;;;;;;5024353;28;20030;-61
2022/03/17 08:38:05;;;;;;;37.75;26.98;;;10.50;60.90;;;;;;5025763;28;20109;-62
2022/03/17 08:40:31;;;;;;;36.72;27.70;;;10.50;61.00;;;;;;5026960;28;20480;-62
2022/03/17 08:42:57;;;;;;;38.40;26.50;;;10.50;60.90;;;;;;5026537;28;20368;-63
2022/03/17 08:50:50;;;;;;;36.10;26.45;;;10.60;61.00;;;;;;5027862;28;20079;-62
2022/03/17 08:53:16;;;;;;;38.53;27.90;;;10.60;60.90;;;;;;5030616;28;20299;-62
2022/03/17 08:55:42;;;;;;;41.47;28.52;;;10.60;60.80;;;;;;5046118;28;20033;-62
2022/03/17 08:58:08;;;;;;;39.72;28.08;;;10.60;60.90;;;;;;5065797;28;20113;-63
2022/03/17 09:00:36;;;;;;;32.50;23.65;;;10.60;60.90;;;;;;5064560;28;20029;-62
2022/03/17 09:03:06;;;;;;;40.55;28.20;;;10.60;61.00;;;;;;5057348;28;20021;-63
2022/03/17 09:05:33;;;;;;;36.90;27.45;;;10.70;61.00;;;;;;5056048;28;20432;-63
2022/03/17 09:07:59;;;;;;;40.72;29.55;;;10.70;61.00;;;;;;5062399;28;20078;-62
2022/03/17 09:10:25;;;;;;;41.13;29.38;;;10.70;60.90;;;;;;5057229;28;20033;-61
2022/03/17 09:12:57;;;;;;;45.00;32.38;;;10.80;60.80;;;;;;5070989;28;20064;-63
2022/03/17 09:15:24;;;;;;;44.17;31.90;;;10.80;60.80;;;;;;5054736;28;20025;-62
2022/03/17 09:17:50;;;;;;;44.63;31.83;;;10.90;60.80;;;;;;5047579;28;20372;-62
2022/03/17 09:20:16;;;;;;;48.35;33.60;;;10.90;60.70;;;;;;5063691;28;20021;-61
2022/03/17 09:22:45;;;;;;;44.88;31.98;;;10.90;60.40;;;;;;5064459;28;20450;-62
2022/03/17 09:25:11;;;;;;;43.40;30.95;;;10.90;60.00;;;;;;5063562;28;20028;-61
2022/03/17 09:27:37;;;;;;;47.70;30.65;;;10.90;60.00;;;;;;5046809;28;20029;-63
2022/03/17 09:30:04;;;;;;;43.25;29.30;;;10.90;60.20;;;;;;5063332;28;20052;-64
2022/03/17 09:32:30;;;;;;;41.10;29.17;;;10.90;60.40;;;;;;5063388;28;20115;-61
2022/03/17 09:34:57;;;;;;;42.47;30.20;;;11.00;60.50;;;;;;5065204;28;20028;-62
2022/03/17 09:37:23;;;;;;;41.58;29.77;;;11.00;60.60;;;;;;5063386;28;20033;-62
2022/03/17 09:39:49;;;;;;;40.33;28.65;;;11.10;60.30;;;;;;5065794;28;20404;-62
2022/03/17 09:42:17;;;;;;;39.45;28.33;;;11.10;60.20;;;;;;5064808;28;20029;-61
2022/03/17 09:44:47;;;;;;;37.50;28.85;;;11.10;60.00;;;;;;5066363;28;20040;-62
2022/03/17 09:47:18;;;;;;;38.25;27.40;;;11.20;59.90;;;;;;5062966;28;20527;-61
2022/03/17 09:49:46;;;;;;;37.75;26.77;;;11.20;59.90;;;;;;5062573;28;20463;-64
2022/03/17 09:52:14;;;;;;;39.47;28.48;;;11.20;60.10;;;;;;5064082;28;20501;-62
2022/03/17 09:54:47;;;;;;;39.78;28.83;;;11.30;60.10;;;;;;5062314;28;20036;-61
2022/03/17 09:57:16;;;;;;;37.15;27.67;;;11.30;59.90;;;;;;5069597;28;20016;-62
2022/03/17 09:59:49;;;;;;;40.53;28.75;;;11.30;59.90;;;;;;5062811;28;20029;-61
2022/03/17 10:02:16;;;;;;;43.28;29.65;;;11.30;59.90;;;;;;5063992;28;20040;-61
2022/03/17 10:04:44;;;;;;;44.25;29.85;;;11.40;60.00;;;;;;5063230;28;20029;-62
2022/03/17 10:07:14;;;;;;;42.42;30.17;;;11.40;59.90;;;;;;5061182;28;20025;-62
2022/03/17 10:09:42;;;;;;;39.30;29.42;;;11.40;59.90;;;;;;5062738;28;20098;-61
2022/03/17 10:12:10;;;;;;;43.45;29.15;;;11.40;59.90;;;;;;5037413;28;20041;-61
2022/03/17 10:14:50;;;;;;;45.05;31.10;;;11.40;59.90;;;;;;5062744;28;20111;-62
2022/03/17 10:17:37;;;;;;;40.45;29.38;;;11.40;59.70;;;;;;5057801;28;20487;-62
2022/03/17 10:20:25;;;;;;;42.78;30.85;;;11.40;59.60;;;;;;5062690;28;20033;-61
2022/03/17 10:23:03;;;;;;;41.72;30.52;;;11.50;59.70;;;;;;5064276;28;20111;-61
2022/03/17 10:25:34;;;;;;;40.45;29.90;;;11.50;59.60;;;;;;5059695;28;20029;-61
2022/03/17 10:28:01;;;;;;;40.75;29.88;;;11.50;59.70;;;;;;5062146;28;20029;-63
2022/03/17 10:30:33;;;;;;;39.55;28.55;;;11.50;59.80;;;;;;5062473;28;20429;-62
2022/03/17 10:33:01;;;;;;;41.20;29.58;;;11.50;59.80;;;;;;5063612;28;20041;-61
2022/03/17 10:35:34;;;;;;;41.55;28.17;;;11.50;59.80;;;;;;5061874;28;20045;-61
2022/03/17 10:38:10;;;;;;;39.78;28.02;;;11.50;59.70;;;;;;5057922;28;20063;-61
2022/03/17 10:40:36;;;;;;;41.30;27.65;;;11.60;59.60;;;;;;5059716;28;20044;-61
2022/03/17 10:43:23;;;;;;;36.53;27.27;;;11.60;59.60;;;;;;5063319;28;20025;-62
2022/03/17 10:46:03;;;;;;;36.65;26.63;;;11.60;59.40;;;;;;5051029;28;20025;-62
2022/03/17 10:48:30;;;;;;;35.83;26.42;;;11.60;59.30;;;;;;5045791;28;20033;-62
2022/03/17 10:50:56;;;;;;;37.72;27.60;;;11.60;59.40;;;;;;5062043;28;20051;-62
2022/03/17 10:53:29;;;;;;;36.85;27.90;;;11.60;59.50;;;;;;5063478;28;20040;-63
2022/03/17 10:56:10;;;;;;;36.38;27.45;;;11.60;59.30;;;;;;5057342;28;20029;-63
2022/03/17 10:58:46;;;;;;;39.13;27.58;;;11.60;59.40;;;;;;5059043;28;20043;-62
2022/03/17 11:01:11;;;;;;;38.90;27.20;;;11.60;59.40;;;;;;5057675;28;20083;-62
2022/03/17 11:03:38;;;;;;;35.70;26.40;;;11.60;59.60;;;;;;5065149;28;20029;-62
2022/03/17 11:06:06;;;;;;;37.08;28.17;;;11.60;59.60;;;;;;5054156;28;20093;-62
2022/03/17 11:08:32;;;;;;;37.92;27.95;;;11.70;59.60;;;;;;5063182;28;20036;-63
2022/03/17 11:10:58;;;;;;;34.80;26.95;;;11.70;59.60;;;;;;5043822;28;20025;-63
2022/03/17 11:13:24;;;;;;;39.42;28.40;;;11.70;59.80;;;;;;5061782;28;20063;-64
2022/03/17 11:16:06;;;;;;;39.97;29.08;;;11.70;59.70;;;;;;5047209;28;20028;-64
2022/03/17 11:18:35;;;;;;;41.05;27.58;;;11.80;59.40;;;;;;5062818;28;20120;-64
2022/03/17 11:21:25;;;;;;;39.83;27.67;;;11.80;59.50;;;;;;5057266;28;20036;-63
2022/03/17 11:24:07;;;;;;;43.58;28.90;;;11.80;59.20;;;;;;5062797;28;20036;-64
2022/03/17 11:26:43;;;;;;;37.65;26.88;;;11.80;59.40;;;;;;5062246;28;20063;-64
2022/03/17 11:29:08;;;;;;;40.67;27.80;;;11.80;59.40;;;;;;5045869;28;20029;-64
2022/03/17 11:31:56;;;;;;;38.05;28.15;;;11.90;59.50;;;;;;5062460;28;20044;-63
2022/03/17 11:34:46;;;;;;;35.58;26.35;;;11.90;59.30;;;;;;5067720;28;20029;-64
2022/03/17 11:37:26;;;;;;;42.58;30.15;;;11.90;59.30;;;;;;5062492;28;20052;-64
2022/03/17 11:40:13;;;;;;;46.85;28.63;;;12.00;59.40;;;;;;5067968;28;20021;-64
2022/03/17 11:42:56;;;;;;;40.80;28.23;;;12.00;59.10;;;;;;5067014;28;20028;-63
2022/03/17 11:45:22;;;;;;;38.58;27.83;;;12.00;59.40;;;;;;5065410;28;20029;-65
2022/03/17 11:47:50;;;;;;;36.85;26.75;;;12.00;59.40;;;;;;4975295;28;20111;-63
2022/03/17 11:50:28;;;;;;;42.88;27.92;;;12.00;59.30;;;;;;5067569;28;20103;-63
2022/03/17 11:53:03;;;;;;;39.03;28.05;;;12.10;59.10;;;;;;5058105;28;20055;-63
2022/03/17 11:55:47;;;;;;;37.90;26.20;;;12.10;59.00;;;;;;5067436;28;20027;-63
2022/03/17 11:58:46;;;;;;;38.63;26.40;;;12.20;58.80;;;;;;5066130;28;20013;-63
2022/03/17 12:01:35;;;;;;;38.42;26.63;;;12.20;58.70;;;;;;5062971;28;20072;-63
2022/03/17 12:04:03;;;;;;;41.10;25.40;;;12.30;59.00;;;;;;5067292;28;20365;-63
2022/03/17 12:06:36;;;;;;;35.63;26.35;;;12.40;59.00;;;;;;5065549;28;20025;-63
2022/03/17 12:09:10;;;;;;;35.90;25.90;;;12.50;58.80;;;;;;5067206;28;20048;-63
2022/03/17 12:11:38;;;;;;;41.33;26.55;;;12.50;58.90;;;;;;5047687;28;20096;-63
2022/03/17 12:14:34;;;;;;;35.30;26.55;;;12.60;59.00;;;;;;5067379;28;20159;-63
2022/03/17 12:17:06;;;;;;;;;;;12.60;58.50;;;;;;5066096;28;20021;-63
2022/03/17 12:19:33;;;;;;;31.98;23.83;;;12.70;58.70;;;;;;5066287;28;19938;-63
2022/03/17 12:22:01;;;;;;;36.88;25.80;;;12.70;58.70;;;;;;5065539;28;20056;-63
2022/03/17 12:24:51;;;;;;;39.28;26.80;;;12.70;58.80;;;;;;5067258;28;20050;-63
2022/03/17 12:27:20;;;;;;;35.85;26.25;;;12.80;58.80;;;;;;5044829;28;20075;-63
2022/03/17 12:29:48;;;;;;;36.90;26.95;;;12.80;58.80;;;;;;5066354;28;20040;-63
2022/03/17 12:32:16;;;;;;;34.92;26.95;;;12.90;58.80;;;;;;5065133;28;20108;-63
2022/03/17 12:34:50;;;;;;;38.33;27.73;;;12.90;58.60;;;;;;5062268;28;20097;-63
2022/03/17 12:37:18;;;;;;;37.40;26.13;;;12.90;58.40;;;;;;5055398;28;20079;-63
2022/03/17 12:39:49;;;;;;;38.40;26.35;;;13.00;58.40;;;;;;5066368;28;20056;-64
2022/03/17 12:42:19;;;;;;;36.08;26.38;;;13.00;58.00;;;;;;5062567;28;20078;-63
2022/03/17 12:45:06;;;;;;;35.40;24.88;;;13.10;58.10;;;;;;5060731;28;20034;-63
2022/03/17 12:47:33;;;;;;;34.40;26.00;;;13.10;57.70;;;;;;5055375;28;20025;-64
2022/03/17 12:50:01;;;;;;;34.60;26.10;;;13.10;57.90;;;;;;5066804;28;20029;-64
2022/03/17 12:52:30;;;;;;;38.65;27.10;;;13.10;57.80;;;;;;5047008;28;20119;-64
2022/03/17 12:54:58;;;;;;;36.88;25.90;;;13.20;57.70;;;;;;5064576;28;20112;-63
2022/03/17 12:57:25;;;;;;;42.00;26.27;;;13.20;57.90;;;;;;5046699;28;20447;-64